sensor_id;sensor_type;location;lat;lon;timestamp;P1;durP1;ratioP1;P2;durP2;ratioP2
7523;SDS011;3803;51.666;7.630;2022-12-10T00:00:11;44.67;;;32.33;;
7523;SDS011;3803;51.666;7.630;2022-12-10T00:00:33;44.25;;;31.60;;
7523;SDS011;3803;51.666;7.630;2022-12-10T00:00:53;43.72;;;31.42;;
7523;SDS011;3803;51.666;7.630;2022-12-10T00:01:15;45.00;;;31.97;;
7523;SDS011;3803;51.666;7.630;2022-12-10T00:01:37;45.50;;;31.73;;
7523;SDS011;3803;51.666;7.630;2022-12-10T00:01:59;42.92;;;31.13;;
7523;SDS011;3803;51.666;7.630;2022-12-10T00:02:20;43.40;;;31.20;;
7523;SDS011;3803;51.666;7.630;2022-12-10T00:02:40;42.90;;;31.33;;
7523;SDS011;3803;51.666;7.630;2022-12-10T00:03:01;44.22;;;31.67;;
7523;SDS011;3803;51.666;7.630;2022-12-10T00:03:21;43.33;;;31.60;;
7523;SDS011;3803;51.666;7.630;2022-12-10T00:03:42;43.57;;;31.23;;
7523;SDS011;3803;51.666;7.630;2022-12-10T00:04:04;43.25;;;31.30;;
7523;SDS011;3803;51.666;7.630;2022-12-10T00:04:24;43.03;;;31.33;;
7523;SDS011;3803;51.666;7.630;2022-12-10T00:04:45;42.87;;;31.70;;
7523;SDS011;3803;51.666;7.630;2022-12-10T00:05:08;43.45;;;31.33;;
7523;SDS011;3803;51.666;7.630;2022-12-10T00:05:29;44.40;;;30.70;;
7523;SDS011;3803;51.666;7.630;2022-12-10T00:05:50;43.53;;;30.30;;
7523;SDS011;3803;51.666;7.630;2022-12-10T00:06:16;43.25;;;30.63;;
7523;SDS011;3803;51.666;7.630;2022-12-10T00:06:39;40.85;;;30.75;;
7523;SDS011;3803;51.666;7.630;2022-12-10T00:07:01;41.63;;;31.40;;
7523;SDS011;3803;51.666;7.630;2022-12-10T00:07:21;42.80;;;31.93;;
7523;SDS011;3803;51.666;7.630;2022-12-10T00:07:42;43.15;;;32.05;;
7523;SDS011;3803;51.666;7.630;2022-12-10T00:08:02;43.55;;;31.95;;
7523;SDS011;3803;51.666;7.630;2022-12-10T00:08:23;44.07;;;32.50;;
7523;SDS011;3803;51.666;7.630;2022-12-10T00:08:44;43.60;;;31.75;;
7523;SDS011;3803;51.666;7.630;2022-12-10T00:09:05;41.90;;;30.58;;
7523;SDS011;3803;51.666;7.630;2022-12-10T00:09:29;42.25;;;30.70;;
7523;SDS011;3803;51.666;7.630;2022-12-10T00:09:50;43.88;;;31.85;;
7523;SDS011;3803;51.666;7.630;2022-12-10T00:10:10;43.60;;;31.97;;
7523;SDS011;3803;51.666;7.630;2022-12-10T00:10:31;42.45;;;31.25;;
7523;SDS011;3803;51.666;7.630;2022-12-10T00:10:51;44.20;;;31.75;;
7523;SDS011;3803;51.666;7.630;2022-12-10T00:11:13;44.70;;;31.50;;
7523;SDS011;3803;51.666;7.630;2022-12-10T00:11:34;44.00;;;31.50;;
7523;SDS011;3803;51.666;7.630;2022-12-10T00:11:55;44.73;;;31.90;;
7523;SDS011;3803;51.666;7.630;2022-12-10T00:12:16;46.73;;;32.53;;
7523;SDS011;3803;51.666;7.630;2022-12-10T00:12:36;46.45;;;33.03;;
7523;SDS011;3803;51.666;7.630;2022-12-10T00:12:57;44.40;;;32.22;;
7523;SDS011;3803;51.666;7.630;2022-12-10T00:13:17;44.57;;;31.37;;
7523;SDS011;3803;51.666;7.630;2022-12-10T00:13:38;44.70;;;30.20;;
7523;SDS011;3803;51.666;7.630;2022-12-10T00:13:59;44.67;;;30.70;;
7523;SDS011;3803;51.666;7.630;2022-12-10T00:14:20;43.78;;;31.60;;
7523;SDS011;3803;51.666;7.630;2022-12-10T00:14:40;44.37;;;32.10;;
7523;SDS011;3803;51.666;7.630;2022-12-10T00:15:01;44.15;;;32.20;;
7523;SDS011;3803;51.666;7.630;2022-12-10T00:15:21;45.50;;;32.83;;
7523;SDS011;3803;51.666;7.630;2022-12-10T00:15:42;43.70;;;32.63;;
7523;SDS011;3803;51.666;7.630;2022-12-10T00:16:03;44.42;;;32.70;;
7523;SDS011;3803;51.666;7.630;2022-12-10T00:16:26;43.15;;;31.90;;
7523;SDS011;3803;51.666;7.630;2022-12-10T00:16:47;44.35;;;32.60;;
7523;SDS011;3803;51.666;7.630;2022-12-10T00:17:08;43.70;;;32.13;;
7523;SDS011;3803;51.666;7.630;2022-12-10T00:17:28;43.90;;;32.20;;
7523;SDS011;3803;51.666;7.630;2022-12-10T00:17:49;42.45;;;32.03;;
7523;SDS011;3803;51.666;7.630;2022-12-10T00:18:09;45.22;;;32.25;;
7523;SDS011;3803;51.666;7.630;2022-12-10T00:18:30;44.87;;;31.90;;
7523;SDS011;3803;51.666;7.630;2022-12-10T00:18:52;45.10;;;31.38;;
7523;SDS011;3803;51.666;7.630;2022-12-10T00:19:13;41.83;;;30.52;;
7523;SDS011;3803;51.666;7.630;2022-12-10T00:19:33;43.17;;;30.98;;
7523;SDS011;3803;51.666;7.630;2022-12-10T00:19:54;43.20;;;31.13;;
7523;SDS011;3803;51.666;7.630;2022-12-10T00:20:15;42.65;;;31.25;;
7523;SDS011;3803;51.666;7.630;2022-12-10T00:20:36;41.60;;;30.73;;
7523;SDS011;3803;51.666;7.630;2022-12-10T00:20:57;42.88;;;31.42;;
7523;SDS011;3803;51.666;7.630;2022-12-10T00:21:19;43.45;;;31.83;;
7523;SDS011;3803;51.666;7.630;2022-12-10T00:21:44;43.15;;;31.48;;
7523;SDS011;3803;51.666;7.630;2022-12-10T00:22:06;45.13;;;31.77;;
7523;SDS011;3803;51.666;7.630;2022-12-10T00:22:27;45.80;;;32.15;;
7523;SDS011;3803;51.666;7.630;2022-12-10T00:22:48;46.10;;;32.80;;
7523;SDS011;3803;51.666;7.630;2022-12-10T00:23:08;44.90;;;32.33;;
7523;SDS011;3803;51.666;7.630;2022-12-10T00:23:29;44.13;;;31.13;;
7523;SDS011;3803;51.666;7.630;2022-12-10T00:23:51;46.08;;;31.67;;
7523;SDS011;3803;51.666;7.630;2022-12-10T00:24:12;48.42;;;32.55;;
7523;SDS011;3803;51.666;7.630;2022-12-10T00:24:32;48.93;;;33.17;;
7523;SDS011;3803;51.666;7.630;2022-12-10T00:24:53;47.58;;;32.42;;
7523;SDS011;3803;51.666;7.630;2022-12-10T00:25:14;44.70;;;32.03;;
7523;SDS011;3803;51.666;7.630;2022-12-10T00:25:34;43.97;;;31.50;;
7523;SDS011;3803;51.666;7.630;2022-12-10T00:25:55;44.35;;;31.77;;
7523;SDS011;3803;51.666;7.630;2022-12-10T00:26:34;46.50;;;32.35;;
7523;SDS011;3803;51.666;7.630;2022-12-10T00:26:56;46.20;;;32.45;;
7523;SDS011;3803;51.666;7.630;2022-12-10T00:27:17;44.77;;;31.97;;
7523;SDS011;3803;51.666;7.630;2022-12-10T00:27:37;44.23;;;31.00;;
7523;SDS011;3803;51.666;7.630;2022-12-10T00:27:58;42.80;;;30.73;;
7523;SDS011;3803;51.666;7.630;2022-12-10T00:28:19;44.53;;;31.60;;
7523;SDS011;3803;51.666;7.630;2022-12-10T00:28:39;45.80;;;32.00;;
7523;SDS011;3803;51.666;7.630;2022-12-10T00:29:01;47.08;;;32.20;;
7523;SDS011;3803;51.666;7.630;2022-12-10T00:29:35;45.72;;;31.20;;
7523;SDS011;3803;51.666;7.630;2022-12-10T00:29:56;42.70;;;31.00;;
7523;SDS011;3803;51.666;7.630;2022-12-10T00:30:17;41.05;;;30.60;;
7523;SDS011;3803;51.666;7.630;2022-12-10T00:30:37;39.97;;;29.77;;
7523;SDS011;3803;51.666;7.630;2022-12-10T00:31:02;39.22;;;28.90;;
7523;SDS011;3803;51.666;7.630;2022-12-10T00:31:29;41.63;;;29.50;;
7523;SDS011;3803;51.666;7.630;2022-12-10T00:31:52;43.20;;;29.88;;
7523;SDS011;3803;51.666;7.630;2022-12-10T00:32:13;42.00;;;30.00;;
7523;SDS011;3803;51.666;7.630;2022-12-10T00:32:33;41.33;;;30.00;;
7523;SDS011;3803;51.666;7.630;2022-12-10T00:32:54;40.42;;;30.00;;
7523;SDS011;3803;51.666;7.630;2022-12-10T00:33:14;40.65;;;30.35;;
7523;SDS011;3803;51.666;7.630;2022-12-10T00:33:35;41.77;;;30.57;;
7523;SDS011;3803;51.666;7.630;2022-12-10T00:33:56;42.30;;;30.63;;
7523;SDS011;3803;51.666;7.630;2022-12-10T00:34:24;42.83;;;30.05;;
7523;SDS011;3803;51.666;7.630;2022-12-10T00:34:45;41.35;;;30.13;;
7523;SDS011;3803;51.666;7.630;2022-12-10T00:35:05;42.25;;;30.50;;
7523;SDS011;3803;51.666;7.630;2022-12-10T00:35:27;41.47;;;30.40;;
7523;SDS011;3803;51.666;7.630;2022-12-10T00:35:48;41.45;;;29.98;;
7523;SDS011;3803;51.666;7.630;2022-12-10T00:36:10;40.55;;;30.25;;
7523;SDS011;3803;51.666;7.630;2022-12-10T00:36:37;43.35;;;32.00;;
7523;SDS011;3803;51.666;7.630;2022-12-10T00:37:00;43.60;;;31.15;;
7523;SDS011;3803;51.666;7.630;2022-12-10T00:37:20;43.05;;;30.35;;
7523;SDS011;3803;51.666;7.630;2022-12-10T00:37:41;41.72;;;29.35;;
7523;SDS011;3803;51.666;7.630;2022-12-10T00:38:02;41.73;;;29.90;;
7523;SDS011;3803;51.666;7.630;2022-12-10T00:38:23;42.90;;;30.88;;
7523;SDS011;3803;51.666;7.630;2022-12-10T00:38:44;44.50;;;32.27;;
7523;SDS011;3803;51.666;7.630;2022-12-10T00:39:05;43.03;;;31.77;;
7523;SDS011;3803;51.666;7.630;2022-12-10T00:39:26;43.72;;;32.22;;
7523;SDS011;3803;51.666;7.630;2022-12-10T00:39:47;43.78;;;31.65;;
7523;SDS011;3803;51.666;7.630;2022-12-10T00:40:08;46.33;;;31.85;;
7523;SDS011;3803;51.666;7.630;2022-12-10T00:40:32;46.17;;;30.42;;
7523;SDS011;3803;51.666;7.630;2022-12-10T00:40:53;45.72;;;30.40;;
7523;SDS011;3803;51.666;7.630;2022-12-10T00:41:13;44.63;;;30.33;;
7523;SDS011;3803;51.666;7.630;2022-12-10T00:41:35;44.50;;;31.17;;
7523;SDS011;3803;51.666;7.630;2022-12-10T00:41:55;43.47;;;31.13;;
7523;SDS011;3803;51.666;7.630;2022-12-10T00:42:16;43.15;;;31.65;;
7523;SDS011;3803;51.666;7.630;2022-12-10T00:42:36;42.27;;;31.40;;
7523;SDS011;3803;51.666;7.630;2022-12-10T00:42:57;42.27;;;30.73;;
7523;SDS011;3803;51.666;7.630;2022-12-10T00:43:18;43.15;;;30.33;;
7523;SDS011;3803;51.666;7.630;2022-12-10T00:43:38;41.53;;;29.80;;
7523;SDS011;3803;51.666;7.630;2022-12-10T00:44:00;42.05;;;29.92;;
7523;SDS011;3803;51.666;7.630;2022-12-10T00:44:20;42.72;;;30.48;;
7523;SDS011;3803;51.666;7.630;2022-12-10T00:44:41;43.97;;;31.27;;
7523;SDS011;3803;51.666;7.630;2022-12-10T00:45:02;44.10;;;31.80;;
7523;SDS011;3803;51.666;7.630;2022-12-10T00:45:24;44.67;;;32.10;;
7523;SDS011;3803;51.666;7.630;2022-12-10T00:45:45;42.90;;;31.77;;
7523;SDS011;3803;51.666;7.630;2022-12-10T00:46:06;44.22;;;31.92;;
7523;SDS011;3803;51.666;7.630;2022-12-10T00:46:27;43.72;;;31.02;;
7523;SDS011;3803;51.666;7.630;2022-12-10T00:46:48;45.97;;;30.88;;
7523;SDS011;3803;51.666;7.630;2022-12-10T00:47:09;44.10;;;30.20;;
7523;SDS011;3803;51.666;7.630;2022-12-10T00:47:29;43.33;;;30.85;;
7523;SDS011;3803;51.666;7.630;2022-12-10T00:47:50;41.97;;;31.70;;
7523;SDS011;3803;51.666;7.630;2022-12-10T00:48:10;42.72;;;32.33;;
7523;SDS011;3803;51.666;7.630;2022-12-10T00:48:31;43.67;;;32.10;;
7523;SDS011;3803;51.666;7.630;2022-12-10T00:48:52;44.63;;;31.42;;
7523;SDS011;3803;51.666;7.630;2022-12-10T00:49:12;43.27;;;31.17;;
7523;SDS011;3803;51.666;7.630;2022-12-10T00:49:33;41.75;;;31.05;;
7523;SDS011;3803;51.666;7.630;2022-12-10T00:49:54;43.78;;;31.85;;
7523;SDS011;3803;51.666;7.630;2022-12-10T00:50:14;45.27;;;31.83;;
7523;SDS011;3803;51.666;7.630;2022-12-10T00:50:35;46.77;;;32.40;;
7523;SDS011;3803;51.666;7.630;2022-12-10T00:51:00;45.03;;;31.73;;
7523;SDS011;3803;51.666;7.630;2022-12-10T00:51:31;42.13;;;30.15;;
7523;SDS011;3803;51.666;7.630;2022-12-10T00:51:52;41.45;;;30.42;;
7523;SDS011;3803;51.666;7.630;2022-12-10T00:52:13;43.67;;;31.73;;
7523;SDS011;3803;51.666;7.630;2022-12-10T00:52:33;44.13;;;32.50;;
7523;SDS011;3803;51.666;7.630;2022-12-10T00:52:54;45.50;;;32.83;;
7523;SDS011;3803;51.666;7.630;2022-12-10T00:53:14;44.60;;;32.43;;
7523;SDS011;3803;51.666;7.630;2022-12-10T00:53:36;45.30;;;32.10;;
7523;SDS011;3803;51.666;7.630;2022-12-10T00:53:58;41.88;;;30.58;;
7523;SDS011;3803;51.666;7.630;2022-12-10T00:54:19;42.05;;;30.48;;
7523;SDS011;3803;51.666;7.630;2022-12-10T00:54:39;40.05;;;29.80;;
7523;SDS011;3803;51.666;7.630;2022-12-10T00:55:01;41.97;;;30.88;;
7523;SDS011;3803;51.666;7.630;2022-12-10T00:55:21;42.17;;;31.48;;
7523;SDS011;3803;51.666;7.630;2022-12-10T00:55:42;41.33;;;31.58;;
7523;SDS011;3803;51.666;7.630;2022-12-10T00:56:03;40.13;;;30.63;;
7523;SDS011;3803;51.666;7.630;2022-12-10T00:56:25;40.00;;;30.23;;
7523;SDS011;3803;51.666;7.630;2022-12-10T00:56:47;40.22;;;29.70;;
7523;SDS011;3803;51.666;7.630;2022-12-10T00:57:08;41.97;;;30.08;;
7523;SDS011;3803;51.666;7.630;2022-12-10T00:57:29;43.20;;;30.83;;
7523;SDS011;3803;51.666;7.630;2022-12-10T00:57:50;43.38;;;31.25;;
7523;SDS011;3803;51.666;7.630;2022-12-10T00:58:29;41.53;;;30.75;;
7523;SDS011;3803;51.666;7.630;2022-12-10T00:59:06;42.67;;;31.58;;
7523;SDS011;3803;51.666;7.630;2022-12-10T00:59:27;41.00;;;30.60;;
7523;SDS011;3803;51.666;7.630;2022-12-10T00:59:47;40.42;;;29.75;;
7523;SDS011;3803;51.666;7.630;2022-12-10T01:00:08;39.35;;;29.45;;
7523;SDS011;3803;51.666;7.630;2022-12-10T01:00:29;41.88;;;30.40;;
7523;SDS011;3803;51.666;7.630;2022-12-10T01:00:49;45.00;;;32.08;;
7523;SDS011;3803;51.666;7.630;2022-12-10T01:01:21;48.40;;;33.95;;
7523;SDS011;3803;51.666;7.630;2022-12-10T01:01:45;47.20;;;33.58;;
7523;SDS011;3803;51.666;7.630;2022-12-10T01:02:06;46.17;;;32.37;;
7523;SDS011;3803;51.666;7.630;2022-12-10T01:02:26;44.80;;;31.35;;
7523;SDS011;3803;51.666;7.630;2022-12-10T01:02:47;45.05;;;30.90;;
7523;SDS011;3803;51.666;7.630;2022-12-10T01:03:07;44.43;;;30.20;;
7523;SDS011;3803;51.666;7.630;2022-12-10T01:03:28;46.90;;;31.15;;
7523;SDS011;3803;51.666;7.630;2022-12-10T01:03:49;46.78;;;32.13;;
7523;SDS011;3803;51.666;7.630;2022-12-10T01:04:13;45.25;;;32.53;;
7523;SDS011;3803;51.666;7.630;2022-12-10T01:04:35;43.88;;;32.70;;
7523;SDS011;3803;51.666;7.630;2022-12-10T01:04:56;44.13;;;33.47;;
7523;SDS011;3803;51.666;7.630;2022-12-10T01:05:18;43.42;;;32.50;;
7523;SDS011;3803;51.666;7.630;2022-12-10T01:05:38;43.05;;;31.23;;
7523;SDS011;3803;51.666;7.630;2022-12-10T01:06:07;45.80;;;30.60;;
7523;SDS011;3803;51.666;7.630;2022-12-10T01:06:33;47.15;;;32.42;;
7523;SDS011;3803;51.666;7.630;2022-12-10T01:07:01;44.42;;;32.25;;
7523;SDS011;3803;51.666;7.630;2022-12-10T01:07:22;43.95;;;31.70;;
7523;SDS011;3803;51.666;7.630;2022-12-10T01:07:44;42.88;;;32.05;;
7523;SDS011;3803;51.666;7.630;2022-12-10T01:08:04;43.20;;;32.30;;
7523;SDS011;3803;51.666;7.630;2022-12-10T01:08:25;43.47;;;32.22;;
7523;SDS011;3803;51.666;7.630;2022-12-10T01:08:46;43.80;;;31.48;;
7523;SDS011;3803;51.666;7.630;2022-12-10T01:09:08;43.95;;;31.70;;
7523;SDS011;3803;51.666;7.630;2022-12-10T01:09:31;44.08;;;31.45;;
7523;SDS011;3803;51.666;7.630;2022-12-10T01:09:51;43.78;;;31.20;;
7523;SDS011;3803;51.666;7.630;2022-12-10T01:10:12;43.33;;;31.10;;
7523;SDS011;3803;51.666;7.630;2022-12-10T01:10:32;43.30;;;31.47;;
7523;SDS011;3803;51.666;7.630;2022-12-10T01:10:54;43.42;;;30.98;;
7523;SDS011;3803;51.666;7.630;2022-12-10T01:11:15;44.27;;;30.90;;
7523;SDS011;3803;51.666;7.630;2022-12-10T01:11:38;46.38;;;31.95;;
7523;SDS011;3803;51.666;7.630;2022-12-10T01:12:01;47.00;;;33.30;;
7523;SDS011;3803;51.666;7.630;2022-12-10T01:12:22;44.90;;;33.70;;
7523;SDS011;3803;51.666;7.630;2022-12-10T01:12:43;44.13;;;32.85;;
7523;SDS011;3803;51.666;7.630;2022-12-10T01:13:05;45.05;;;33.53;;
7523;SDS011;3803;51.666;7.630;2022-12-10T01:13:25;45.03;;;33.78;;
7523;SDS011;3803;51.666;7.630;2022-12-10T01:13:46;46.38;;;34.30;;
7523;SDS011;3803;51.666;7.630;2022-12-10T01:14:09;46.63;;;33.88;;
7523;SDS011;3803;51.666;7.630;2022-12-10T01:14:33;46.45;;;33.72;;
7523;SDS011;3803;51.666;7.630;2022-12-10T01:14:54;46.22;;;33.65;;
7523;SDS011;3803;51.666;7.630;2022-12-10T01:15:14;46.80;;;33.90;;
7523;SDS011;3803;51.666;7.630;2022-12-10T01:15:38;46.67;;;33.10;;
7523;SDS011;3803;51.666;7.630;2022-12-10T01:16:00;47.33;;;33.38;;
7523;SDS011;3803;51.666;7.630;2022-12-10T01:16:24;45.75;;;32.90;;
7523;SDS011;3803;51.666;7.630;2022-12-10T01:16:45;45.95;;;33.67;;
7523;SDS011;3803;51.666;7.630;2022-12-10T01:17:06;46.10;;;34.10;;
7523;SDS011;3803;51.666;7.630;2022-12-10T01:17:27;46.67;;;33.90;;
7523;SDS011;3803;51.666;7.630;2022-12-10T01:17:48;46.35;;;33.47;;
7523;SDS011;3803;51.666;7.630;2022-12-10T01:18:08;46.57;;;32.60;;
7523;SDS011;3803;51.666;7.630;2022-12-10T01:18:29;47.55;;;33.17;;
7523;SDS011;3803;51.666;7.630;2022-12-10T01:18:52;48.95;;;33.90;;
7523;SDS011;3803;51.666;7.630;2022-12-10T01:19:18;47.10;;;33.80;;
7523;SDS011;3803;51.666;7.630;2022-12-10T01:19:39;45.33;;;32.72;;
7523;SDS011;3803;51.666;7.630;2022-12-10T01:19:59;44.70;;;32.60;;
7523;SDS011;3803;51.666;7.630;2022-12-10T01:20:20;45.67;;;32.97;;
7523;SDS011;3803;51.666;7.630;2022-12-10T01:20:42;46.92;;;33.50;;
7523;SDS011;3803;51.666;7.630;2022-12-10T01:21:12;47.30;;;33.47;;
7523;SDS011;3803;51.666;7.630;2022-12-10T01:21:36;49.10;;;34.22;;
7523;SDS011;3803;51.666;7.630;2022-12-10T01:21:57;50.47;;;34.28;;
7523;SDS011;3803;51.666;7.630;2022-12-10T01:22:18;49.20;;;34.67;;
7523;SDS011;3803;51.666;7.630;2022-12-10T01:22:38;46.95;;;34.60;;
7523;SDS011;3803;51.666;7.630;2022-12-10T01:22:59;46.53;;;34.37;;
7523;SDS011;3803;51.666;7.630;2022-12-10T01:23:19;45.80;;;33.53;;
7523;SDS011;3803;51.666;7.630;2022-12-10T01:23:41;45.08;;;33.70;;
7523;SDS011;3803;51.666;7.630;2022-12-10T01:24:03;46.65;;;33.83;;
7523;SDS011;3803;51.666;7.630;2022-12-10T01:24:24;47.17;;;33.72;;
7523;SDS011;3803;51.666;7.630;2022-12-10T01:24:46;48.35;;;33.70;;
7523;SDS011;3803;51.666;7.630;2022-12-10T01:25:07;47.30;;;33.47;;
7523;SDS011;3803;51.666;7.630;2022-12-10T01:25:28;46.55;;;32.83;;
7523;SDS011;3803;51.666;7.630;2022-12-10T01:25:49;44.90;;;32.30;;
7523;SDS011;3803;51.666;7.630;2022-12-10T01:26:11;45.30;;;32.90;;
7523;SDS011;3803;51.666;7.630;2022-12-10T01:26:34;46.45;;;34.00;;
7523;SDS011;3803;51.666;7.630;2022-12-10T01:26:55;47.17;;;34.05;;
7523;SDS011;3803;51.666;7.630;2022-12-10T01:27:16;48.35;;;35.25;;
7523;SDS011;3803;51.666;7.630;2022-12-10T01:27:37;48.40;;;35.27;;
7523;SDS011;3803;51.666;7.630;2022-12-10T01:27:57;48.27;;;34.97;;
7523;SDS011;3803;51.666;7.630;2022-12-10T01:28:18;47.97;;;33.95;;
7523;SDS011;3803;51.666;7.630;2022-12-10T01:28:40;46.97;;;33.60;;
7523;SDS011;3803;51.666;7.630;2022-12-10T01:29:01;49.80;;;34.00;;
7523;SDS011;3803;51.666;7.630;2022-12-10T01:29:23;49.50;;;34.33;;
7523;SDS011;3803;51.666;7.630;2022-12-10T01:29:44;51.38;;;34.88;;
7523;SDS011;3803;51.666;7.630;2022-12-10T01:30:05;47.65;;;34.60;;
7523;SDS011;3803;51.666;7.630;2022-12-10T01:30:25;47.88;;;34.28;;
7523;SDS011;3803;51.666;7.630;2022-12-10T01:30:46;47.22;;;34.08;;
7523;SDS011;3803;51.666;7.630;2022-12-10T01:31:10;46.90;;;33.42;;
7523;SDS011;3803;51.666;7.630;2022-12-10T01:31:35;44.80;;;32.60;;
7523;SDS011;3803;51.666;7.630;2022-12-10T01:31:59;45.72;;;33.67;;
7523;SDS011;3803;51.666;7.630;2022-12-10T01:32:20;46.30;;;34.13;;
7523;SDS011;3803;51.666;7.630;2022-12-10T01:32:40;51.50;;;34.83;;
7523;SDS011;3803;51.666;7.630;2022-12-10T01:33:01;51.33;;;34.70;;
7523;SDS011;3803;51.666;7.630;2022-12-10T01:33:21;51.95;;;34.35;;
7523;SDS011;3803;51.666;7.630;2022-12-10T01:33:42;48.92;;;33.72;;
7523;SDS011;3803;51.666;7.630;2022-12-10T01:34:04;50.08;;;34.10;;
7523;SDS011;3803;51.666;7.630;2022-12-10T01:34:26;48.92;;;35.17;;
7523;SDS011;3803;51.666;7.630;2022-12-10T01:34:50;47.83;;;35.10;;
7523;SDS011;3803;51.666;7.630;2022-12-10T01:35:10;48.15;;;34.45;;
7523;SDS011;3803;51.666;7.630;2022-12-10T01:35:31;48.35;;;34.25;;
7523;SDS011;3803;51.666;7.630;2022-12-10T01:35:51;49.80;;;35.20;;
7523;SDS011;3803;51.666;7.630;2022-12-10T01:36:22;48.10;;;35.05;;
7523;SDS011;3803;51.666;7.630;2022-12-10T01:36:50;45.03;;;33.33;;
7523;SDS011;3803;51.666;7.630;2022-12-10T01:37:12;46.22;;;32.97;;
7523;SDS011;3803;51.666;7.630;2022-12-10T01:37:33;47.00;;;33.33;;
7523;SDS011;3803;51.666;7.630;2022-12-10T01:37:53;49.08;;;34.58;;
7523;SDS011;3803;51.666;7.630;2022-12-10T01:38:14;47.42;;;34.85;;
7523;SDS011;3803;51.666;7.630;2022-12-10T01:38:35;48.10;;;34.30;;
7523;SDS011;3803;51.666;7.630;2022-12-10T01:38:58;48.60;;;34.05;;
7523;SDS011;3803;51.666;7.630;2022-12-10T01:39:21;49.70;;;34.60;;
7523;SDS011;3803;51.666;7.630;2022-12-10T01:39:43;48.35;;;35.08;;
7523;SDS011;3803;51.666;7.630;2022-12-10T01:40:04;47.80;;;34.93;;
7523;SDS011;3803;51.666;7.630;2022-12-10T01:40:25;45.95;;;34.35;;
7523;SDS011;3803;51.666;7.630;2022-12-10T01:40:46;46.03;;;34.90;;
7523;SDS011;3803;51.666;7.630;2022-12-10T01:41:07;44.63;;;34.38;;
7523;SDS011;3803;51.666;7.630;2022-12-10T01:41:34;46.42;;;34.50;;
7523;SDS011;3803;51.666;7.630;2022-12-10T01:41:56;46.38;;;33.88;;
7523;SDS011;3803;51.666;7.630;2022-12-10T01:42:18;47.30;;;34.08;;
7523;SDS011;3803;51.666;7.630;2022-12-10T01:42:40;47.45;;;34.38;;
7523;SDS011;3803;51.666;7.630;2022-12-10T01:43:01;47.92;;;34.80;;
7523;SDS011;3803;51.666;7.630;2022-12-10T01:43:21;48.10;;;35.00;;
7523;SDS011;3803;51.666;7.630;2022-12-10T01:43:52;49.15;;;34.58;;
7523;SDS011;3803;51.666;7.630;2022-12-10T01:45:05;44.63;;;34.05;;
7523;SDS011;3803;51.666;7.630;2022-12-10T01:45:28;44.70;;;33.60;;
7523;SDS011;3803;51.666;7.630;2022-12-10T01:45:49;45.50;;;34.13;;
7523;SDS011;3803;51.666;7.630;2022-12-10T01:46:10;44.55;;;33.17;;
7523;SDS011;3803;51.666;7.630;2022-12-10T01:46:31;45.07;;;33.87;;
7523;SDS011;3803;51.666;7.630;2022-12-10T01:46:54;45.05;;;33.47;;
7523;SDS011;3803;51.666;7.630;2022-12-10T01:47:18;46.20;;;34.13;;
7523;SDS011;3803;51.666;7.630;2022-12-10T01:47:38;45.78;;;33.15;;
7523;SDS011;3803;51.666;7.630;2022-12-10T01:47:59;44.43;;;32.40;;
7523;SDS011;3803;51.666;7.630;2022-12-10T01:48:19;44.47;;;33.03;;
7523;SDS011;3803;51.666;7.630;2022-12-10T01:48:40;45.35;;;34.58;;
7523;SDS011;3803;51.666;7.630;2022-12-10T01:49:01;46.07;;;35.50;;
7523;SDS011;3803;51.666;7.630;2022-12-10T01:49:34;44.28;;;34.25;;
7523;SDS011;3803;51.666;7.630;2022-12-10T01:49:59;45.13;;;34.03;;
7523;SDS011;3803;51.666;7.630;2022-12-10T01:50:21;44.92;;;34.05;;
7523;SDS011;3803;51.666;7.630;2022-12-10T01:50:42;43.08;;;33.08;;
7523;SDS011;3803;51.666;7.630;2022-12-10T01:51:02;43.33;;;33.00;;
7523;SDS011;3803;51.666;7.630;2022-12-10T01:51:24;46.10;;;34.20;;
7523;SDS011;3803;51.666;7.630;2022-12-10T01:51:49;45.90;;;34.17;;
7523;SDS011;3803;51.666;7.630;2022-12-10T01:52:12;43.97;;;33.33;;
7523;SDS011;3803;51.666;7.630;2022-12-10T01:52:33;44.67;;;34.33;;
7523;SDS011;3803;51.666;7.630;2022-12-10T01:52:54;45.55;;;34.83;;
7523;SDS011;3803;51.666;7.630;2022-12-10T01:53:14;47.00;;;35.33;;
7523;SDS011;3803;51.666;7.630;2022-12-10T01:53:36;46.50;;;34.53;;
7523;SDS011;3803;51.666;7.630;2022-12-10T01:53:57;47.60;;;35.08;;
7523;SDS011;3803;51.666;7.630;2022-12-10T01:54:22;46.38;;;34.22;;
7523;SDS011;3803;51.666;7.630;2022-12-10T01:54:45;46.55;;;34.90;;
7523;SDS011;3803;51.666;7.630;2022-12-10T01:55:08;47.88;;;35.50;;
7523;SDS011;3803;51.666;7.630;2022-12-10T01:55:49;50.90;;;35.05;;
7523;SDS011;3803;51.666;7.630;2022-12-10T01:56:11;49.35;;;34.72;;
7523;SDS011;3803;51.666;7.630;2022-12-10T01:56:35;47.53;;;34.58;;
7523;SDS011;3803;51.666;7.630;2022-12-10T01:57:03;47.50;;;34.60;;
7523;SDS011;3803;51.666;7.630;2022-12-10T01:57:27;47.25;;;34.28;;
7523;SDS011;3803;51.666;7.630;2022-12-10T01:57:49;47.25;;;34.47;;
7523;SDS011;3803;51.666;7.630;2022-12-10T01:58:10;46.50;;;34.40;;
7523;SDS011;3803;51.666;7.630;2022-12-10T01:58:33;45.40;;;33.90;;
7523;SDS011;3803;51.666;7.630;2022-12-10T01:58:54;45.08;;;34.42;;
7523;SDS011;3803;51.666;7.630;2022-12-10T01:59:16;45.70;;;34.83;;
7523;SDS011;3803;51.666;7.630;2022-12-10T01:59:37;47.35;;;35.28;;
7523;SDS011;3803;51.666;7.630;2022-12-10T02:00:00;47.85;;;34.63;;
7523;SDS011;3803;51.666;7.630;2022-12-10T02:00:34;43.80;;;32.35;;
7523;SDS011;3803;51.666;7.630;2022-12-10T02:02:46;45.65;;;34.15;;
7523;SDS011;3803;51.666;7.630;2022-12-10T02:03:19;44.97;;;33.55;;
7523;SDS011;3803;51.666;7.630;2022-12-10T02:03:58;45.28;;;33.35;;
7523;SDS011;3803;51.666;7.630;2022-12-10T02:05:42;47.63;;;34.58;;
7523;SDS011;3803;51.666;7.630;2022-12-10T02:06:16;46.95;;;33.47;;
7523;SDS011;3803;51.666;7.630;2022-12-10T02:07:00;45.83;;;33.50;;
7523;SDS011;3803;51.666;7.630;2022-12-10T02:08:10;47.45;;;33.25;;
7523;SDS011;3803;51.666;7.630;2022-12-10T02:09:58;44.45;;;34.08;;
7523;SDS011;3803;51.666;7.630;2022-12-10T02:10:24;42.25;;;32.58;;
7523;SDS011;3803;51.666;7.630;2022-12-10T02:11:34;44.75;;;32.72;;
7523;SDS011;3803;51.666;7.630;2022-12-10T02:12:15;41.58;;;31.95;;
7523;SDS011;3803;51.666;7.630;2022-12-10T02:13:23;43.08;;;32.63;;
7523;SDS011;3803;51.666;7.630;2022-12-10T02:13:58;43.03;;;32.58;;
7523;SDS011;3803;51.666;7.630;2022-12-10T02:14:29;43.90;;;33.30;;
7523;SDS011;3803;51.666;7.630;2022-12-10T02:15:32;44.78;;;34.28;;
7523;SDS011;3803;51.666;7.630;2022-12-10T02:16:03;42.22;;;33.35;;
7523;SDS011;3803;51.666;7.630;2022-12-10T02:16:36;44.30;;;33.50;;
7523;SDS011;3803;51.666;7.630;2022-12-10T02:17:02;47.15;;;33.30;;
7523;SDS011;3803;51.666;7.630;2022-12-10T02:18:36;41.15;;;32.08;;
7523;SDS011;3803;51.666;7.630;2022-12-10T02:19:14;41.96;;;32.28;;
7523;SDS011;3803;51.666;7.630;2022-12-10T02:20:18;44.20;;;32.75;;
7523;SDS011;3803;51.666;7.630;2022-12-10T02:20:49;46.58;;;33.47;;
7523;SDS011;3803;51.666;7.630;2022-12-10T02:21:15;44.55;;;32.50;;
7523;SDS011;3803;51.666;7.630;2022-12-10T02:21:43;42.03;;;32.38;;
7523;SDS011;3803;51.666;7.630;2022-12-10T02:22:06;43.42;;;32.60;;
7523;SDS011;3803;51.666;7.630;2022-12-10T02:22:31;45.17;;;33.78;;
7523;SDS011;3803;51.666;7.630;2022-12-10T02:22:55;43.45;;;33.20;;
7523;SDS011;3803;51.666;7.630;2022-12-10T02:23:19;43.78;;;33.88;;
7523;SDS011;3803;51.666;7.630;2022-12-10T02:23:49;44.00;;;33.38;;
7523;SDS011;3803;51.666;7.630;2022-12-10T02:24:15;42.72;;;32.28;;
7523;SDS011;3803;51.666;7.630;2022-12-10T02:24:41;41.03;;;31.35;;
7523;SDS011;3803;51.666;7.630;2022-12-10T02:25:03;43.63;;;32.60;;
7523;SDS011;3803;51.666;7.630;2022-12-10T02:25:41;46.95;;;33.60;;
7523;SDS011;3803;51.666;7.630;2022-12-10T02:26:51;45.40;;;32.78;;
7523;SDS011;3803;51.666;7.630;2022-12-10T02:28:03;40.97;;;32.10;;